Time,TemperatureF,DewpointF,PressureIn,WindDirection,WindDirectionDegrees,WindSpeedMPH,WindSpeedGustMPH,Humidity,HourlyPrecipIn,Conditions,Clouds,dailyrainin,SoftwareType,DateUTC
2013-03-04 00:04:00,35.5,28.0,30.10,NW,313,0.0,2.0,73,0.00,,,0.00,weatherlink.com 1.10,2013-03-04 06:04:00,
2013-03-04 00:19:00,35.3,29.0,30.09,NW,313,0.0,2.0,77,0.00,,,0.00,weatherlink.com 1.10,2013-03-04 06:19:00,
2013-03-04 00:34:00,35.3,29.0,30.09,NW,313,1.0,2.0,78,0.00,,,0.00,weatherlink.com 1.10,2013-03-04 06:34:00,
2013-03-04 00:49:00,35.5,28.0,30.10,NW,313,1.0,3.0,75,0.00,,,0.00,weatherlink.com 1.10,2013-03-04 06:49:00,
2013-03-04 01:04:00,35.7,28.0,30.10,NW,313,1.0,3.0,73,0.00,,,0.00,weatherlink.com 1.10,2013-03-04 07:04:00,
2013-03-04 01:20:00,35.9,28.0,30.10,NW,313,2.0,2.0,73,0.00,,,0.00,weatherlink.com 1.10,2013-03-04 07:20:00,
2013-03-04 01:35:00,35.9,28.0,30.10,NW,313,2.0,2.0,73,0.00,,,0.00,weatherlink.com 1.10,2013-03-04 07:35:00,
2013-03-04 01:50:00,35.9,28.0,30.10,NW,313,1.0,2.0,74,0.00,,,0.00,weatherlink.com 1.10,2013-03-04 07:50:00,
2013-03-04 02:05:00,35.7,29.0,30.08,East,79,5.0,7.0,77,0.00,,,0.00,weatherlink.com 1.10,2013-03-04 08:05:00,
2013-03-04 02:20:00,35.7,29.0,30.08,East,90,5.0,7.0,75,0.00,,,0.00,weatherlink.com 1.10,2013-03-04 08:20:00,
2013-03-04 02:35:00,35.5,29.0,30.07,ESE,113,1.0,6.0,76,0.00,,,0.00,weatherlink.com 1.10,2013-03-04 08:35:00,
2013-03-04 02:50:00,35.9,28.0,30.07,ESE,113,4.0,4.0,74,0.00,,,0.00,weatherlink.com 1.10,2013-03-04 08:50:00,
2013-03-04 03:05:00,35.7,29.0,30.07,ESE,113,2.0,3.0,77,0.00,,,0.00,weatherlink.com 1.10,2013-03-04 09:05:00,
2013-03-04 03:20:00,35.6,28.0,30.07,ESE,113,1.0,3.0,75,0.00,,,0.00,weatherlink.com 1.10,2013-03-04 09:20:00,
2013-03-04 03:35:00,35.5,29.0,30.07,ESE,113,3.0,4.0,77,0.00,,,0.00,weatherlink.com 1.10,2013-03-04 09:35:00,
2013-03-04 03:50:00,35.5,30.0,30.06,ESE,113,3.0,4.0,79,0.00,,,0.00,weatherlink.com 1.10,2013-03-04 09:50:00,
2013-03-04 04:05:00,35.3,29.0,30.06,ESE,113,2.0,4.0,79,0.00,,,0.00,weatherlink.com 1.10,2013-03-04 10:05:00,
2013-03-04 04:20:00,35.1,30.0,30.06,ESE,113,3.0,4.0,81,0.00,,,0.00,weatherlink.com 1.10,2013-03-04 10:20:00,
2013-03-04 04:35:00,35.0,29.0,30.06,ESE,113,3.0,5.0,79,0.00,,,0.00,weatherlink.com 1.10,2013-03-04 10:35:00,
2013-03-04 04:50:00,35.1,29.0,30.07,ESE,113,3.0,4.0,78,0.00,,,0.00,weatherlink.com 1.10,2013-03-04 10:50:00,
2013-03-04 05:05:00,35.2,29.0,30.05,ESE,113,4.0,7.0,78,0.00,,,0.00,weatherlink.com 1.10,2013-03-04 11:05:00,
2013-03-04 05:20:00,35.2,29.0,30.05,ESE,114,3.0,7.0,78,0.00,,,0.00,weatherlink.com 1.10,2013-03-04 11:20:00,
2013-03-04 05:35:00,35.2,29.0,30.05,ESE,114,7.0,8.0,79,0.00,,,0.00,weatherlink.com 1.10,2013-03-04 11:35:00,
2013-03-04 05:50:00,35.1,29.0,30.05,ESE,115,4.0,9.0,79,0.00,,,0.00,weatherlink.com 1.10,2013-03-04 11:50:00,
2013-03-04 06:05:00,35.1,29.0,30.05,ESE,117,4.0,7.0,78,0.00,,,0.00,weatherlink.com 1.10,2013-03-04 12:05:00,
2013-03-04 06:20:00,35.0,29.0,30.04,ESE,117,7.0,8.0,79,0.00,,,0.00,weatherlink.com 1.10,2013-03-04 12:20:00,
2013-03-04 06:35:00,35.0,29.0,30.04,ESE,119,4.0,8.0,79,0.00,,,0.00,weatherlink.com 1.10,2013-03-04 12:35:00,
2013-03-04 06:50:00,35.2,29.0,30.03,ESE,117,5.0,9.0,78,0.00,,,0.00,weatherlink.com 1.10,2013-03-04 12:50:00,
2013-03-04 07:05:00,35.5,29.0,30.03,ESE,118,4.0,8.0,77,0.00,,,0.00,weatherlink.com 1.10,2013-03-04 13:05:00,
2013-03-04 07:20:00,35.7,29.0,30.03,ESE,119,8.0,9.0,77,0.00,,,0.00,weatherlink.com 1.10,2013-03-04 13:20:00,
2013-03-04 07:35:00,35.8,29.0,30.03,ESE,111,4.0,10.0,76,0.00,,,0.00,weatherlink.com 1.10,2013-03-04 13:35:00,
2013-03-04 07:50:00,36.4,29.0,30.04,ESE,121,7.0,11.0,74,0.00,,,0.00,weatherlink.com 1.10,2013-03-04 13:50:00,
2013-03-04 08:05:00,37.2,29.0,30.02,ESE,115,5.0,9.0,73,0.00,,,0.00,weatherlink.com 1.10,2013-03-04 14:05:00,
2013-03-04 08:20:00,38.3,29.0,30.02,ESE,115,5.0,14.0,69,0.00,,,0.00,weatherlink.com 1.10,2013-03-04 14:20:00,
2013-03-04 08:35:00,38.9,29.0,30.01,ESE,119,9.0,12.0,68,0.00,,,0.00,weatherlink.com 1.10,2013-03-04 14:35:00,
2013-03-04 08:50:00,40.1,29.0,30.00,SE,130,8.0,12.0,66,0.00,,,0.00,weatherlink.com 1.10,2013-03-04 14:50:00,
2013-03-04 09:05:00,40.8,30.0,30.00,ESE,102,8.0,12.0,66,0.00,,,0.00,weatherlink.com 1.10,2013-03-04 15:05:00,
2013-03-04 09:20:00,41.9,30.0,30.00,ESE,113,8.0,11.0,64,0.00,,,0.00,weatherlink.com 1.10,2013-03-04 15:20:00,
2013-03-04 09:35:00,43.2,31.0,29.98,SE,135,13.0,17.0,63,0.00,,,0.00,weatherlink.com 1.10,2013-03-04 15:35:00,
2013-03-04 09:51:00,43.5,30.0,29.96,SE,140,7.0,15.0,60,0.00,,,0.00,weatherlink.com 1.10,2013-03-04 15:51:00,
2013-03-04 10:06:00,44.4,29.0,29.96,ESE,108,10.0,17.0,55,0.00,,,0.00,weatherlink.com 1.10,2013-03-04 16:06:00,
2013-03-04 10:21:00,45.4,30.0,29.94,SE,129,8.0,13.0,55,0.00,,,0.00,weatherlink.com 1.10,2013-03-04 16:21:00,
2013-03-04 10:36:00,46.5,30.0,29.94,ESE,111,9.0,13.0,54,0.00,,,0.00,weatherlink.com 1.10,2013-03-04 16:36:00,
2013-03-04 10:51:00,47.7,31.0,29.93,SE,130,5.0,17.0,53,0.00,,,0.00,weatherlink.com 1.10,2013-03-04 16:51:00,
2013-03-04 11:06:00,48.3,31.0,29.93,SE,136,7.0,15.0,52,0.00,,,0.00,weatherlink.com 1.10,2013-03-04 17:06:00,
2013-03-04 11:21:00,48.4,31.0,29.92,ESE,111,9.0,12.0,52,0.00,,,0.00,weatherlink.com 1.10,2013-03-04 17:21:00,
2013-03-04 11:36:00,48.1,31.0,29.91,ESE,123,7.0,10.0,53,0.00,,,0.00,weatherlink.com 1.10,2013-03-04 17:36:00,
2013-03-04 11:51:00,48.7,32.0,29.90,ESE,119,8.0,15.0,52,0.00,,,0.00,weatherlink.com 1.10,2013-03-04 17:51:00,
2013-03-04 12:06:00,49.9,32.0,29.89,SE,130,7.0,11.0,51,0.00,,,0.00,weatherlink.com 1.10,2013-03-04 18:06:00,
2013-03-04 12:21:00,50.8,33.0,29.88,SE,131,6.0,14.0,51,0.00,,,0.00,weatherlink.com 1.10,2013-03-04 18:21:00,
2013-03-04 12:36:00,51.2,32.0,29.86,ESE,115,5.0,15.0,48,0.00,,,0.00,weatherlink.com 1.10,2013-03-04 18:36:00,
2013-03-04 12:51:00,51.6,34.0,29.85,SE,128,7.0,14.0,51,0.00,,,0.00,weatherlink.com 1.10,2013-03-04 18:51:00,
2013-03-04 13:06:00,52.4,34.0,29.84,ESE,119,7.0,11.0,50,0.00,,,0.00,weatherlink.com 1.10,2013-03-04 19:06:00,
2013-03-04 13:21:00,52.3,33.0,29.83,SE,144,12.0,12.0,49,0.00,,,0.00,weatherlink.com 1.10,2013-03-04 19:21:00,
2013-03-04 13:36:00,52.0,33.0,29.83,SSE,150,15.0,15.0,49,0.00,,,0.00,weatherlink.com 1.10,2013-03-04 19:36:00,
2013-03-04 13:51:00,52.0,33.0,29.82,SSE,162,8.0,11.0,49,0.00,,,0.00,weatherlink.com 1.10,2013-03-04 19:51:00,
2013-03-04 14:06:00,51.8,32.0,29.82,SE,140,3.0,11.0,48,0.00,,,0.00,weatherlink.com 1.10,2013-03-04 20:06:00,
2013-03-04 14:21:00,51.6,32.0,29.83,SE,130,5.0,10.0,48,0.00,,,0.00,weatherlink.com 1.10,2013-03-04 20:21:00,
2013-03-04 14:36:00,51.5,33.0,29.83,SE,126,5.0,10.0,50,0.00,,,0.00,weatherlink.com 1.10,2013-03-04 20:36:00,
2013-03-04 14:51:00,51.2,36.0,29.83,SE,139,1.0,4.0,56,0.00,,,0.00,weatherlink.com 1.10,2013-03-04 20:51:00,
2013-03-04 15:06:00,51.1,35.0,29.83,SE,139,3.0,5.0,54,0.00,,,0.00,weatherlink.com 1.10,2013-03-04 21:06:00,
2013-03-04 15:21:00,51.4,35.0,29.83,SE,143,2.0,6.0,53,0.00,,,0.00,weatherlink.com 1.10,2013-03-04 21:21:00,
2013-03-04 15:36:00,51.4,36.0,29.82,ESE,120,2.0,5.0,55,0.00,,,0.00,weatherlink.com 1.10,2013-03-04 21:36:00,
2013-03-04 15:51:00,51.2,37.0,29.82,ESE,120,2.0,5.0,58,0.00,,,0.00,weatherlink.com 1.10,2013-03-04 21:51:00,
2013-03-04 16:06:00,50.8,36.0,29.82,ESE,120,2.0,4.0,58,0.00,,,0.00,weatherlink.com 1.10,2013-03-04 22:06:00,
2013-03-04 16:21:00,50.3,38.0,29.82,ESE,120,0.0,3.0,62,0.00,,,0.00,weatherlink.com 1.10,2013-03-04 22:21:00,
2013-03-04 16:36:00,50.1,39.0,29.82,ESE,120,1.0,2.0,65,0.00,,,0.00,weatherlink.com 1.10,2013-03-04 22:36:00,
2013-03-04 16:51:00,50.0,39.0,29.82,ESE,120,2.0,4.0,65,0.00,,,0.00,weatherlink.com 1.10,2013-03-04 22:51:00,
2013-03-04 17:06:00,50.4,37.0,29.82,ESE,120,2.0,3.0,60,0.00,,,0.00,weatherlink.com 1.10,2013-03-04 23:06:00,
2013-03-04 17:21:00,50.0,38.0,29.82,ESE,120,2.0,3.0,63,0.00,,,0.00,weatherlink.com 1.10,2013-03-04 23:21:00,
2013-03-04 17:36:00,49.9,38.0,29.82,ESE,120,1.0,4.0,64,0.00,,,0.00,weatherlink.com 1.10,2013-03-04 23:36:00,
2013-03-04 17:51:00,48.9,39.0,29.83,ESE,120,1.0,3.0,69,0.00,,,0.00,weatherlink.com 1.10,2013-03-04 23:51:00,
2013-03-04 18:06:00,48.6,39.0,29.83,ESE,120,2.0,3.0,69,0.00,,,0.00,weatherlink.com 1.10,2013-03-05 00:06:00,
2013-03-04 18:21:00,49.0,38.0,29.84,ESE,120,2.0,4.0,67,0.00,,,0.00,weatherlink.com 1.10,2013-03-05 00:21:00,
2013-03-04 18:36:00,48.7,39.0,29.84,ESE,120,1.0,4.0,69,0.00,,,0.00,weatherlink.com 1.10,2013-03-05 00:36:00,
2013-03-04 18:51:00,48.0,39.0,29.84,ESE,120,2.0,5.0,70,0.00,,,0.00,weatherlink.com 1.10,2013-03-05 00:51:00,
2013-03-04 19:07:00,47.7,38.0,29.85,ESE,120,2.0,3.0,70,0.00,,,0.00,weatherlink.com 1.10,2013-03-05 01:07:00,
2013-03-04 19:21:00,47.2,39.0,29.84,ESE,120,1.0,2.0,73,0.00,,,0.00,weatherlink.com 1.10,2013-03-05 01:21:00,
2013-03-04 19:37:00,47.2,38.0,29.84,ESE,120,2.0,3.0,70,0.00,,,0.00,weatherlink.com 1.10,2013-03-05 01:37:00,
2013-03-04 19:52:00,47.3,38.0,29.84,ESE,120,2.0,4.0,70,0.00,,,0.00,weatherlink.com 1.10,2013-03-05 01:52:00,
2013-03-04 20:07:00,47.2,38.0,29.84,ESE,120,2.0,4.0,70,0.00,,,0.00,weatherlink.com 1.10,2013-03-05 02:07:00,
2013-03-04 20:22:00,47.1,38.0,29.84,ESE,120,1.0,3.0,71,0.00,,,0.00,weatherlink.com 1.10,2013-03-05 02:22:00,
2013-03-04 20:37:00,46.8,38.0,29.83,ESE,120,2.0,4.0,71,0.00,,,0.00,weatherlink.com 1.10,2013-03-05 02:37:00,
2013-03-04 20:52:00,46.7,37.0,29.83,ESE,120,2.0,4.0,70,0.00,,,0.00,weatherlink.com 1.10,2013-03-05 02:52:00,
2013-03-04 21:07:00,46.3,38.0,29.82,ESE,120,4.0,4.0,72,0.00,,,0.00,weatherlink.com 1.10,2013-03-05 03:07:00,
2013-03-04 21:22:00,46.1,38.0,29.82,ESE,108,2.0,5.0,72,0.00,,,0.00,weatherlink.com 1.10,2013-03-05 03:22:00,
2013-03-04 21:37:00,46.1,37.0,29.82,ESE,106,3.0,4.0,71,0.00,,,0.00,weatherlink.com 1.10,2013-03-05 03:37:00,
2013-03-04 21:52:00,46.1,37.0,29.82,ESE,103,1.0,6.0,71,0.00,,,0.00,weatherlink.com 1.10,2013-03-05 03:52:00,
2013-03-04 22:07:00,45.9,37.0,29.82,ESE,103,2.0,5.0,72,0.00,,,0.00,weatherlink.com 1.10,2013-03-05 04:07:00,
2013-03-04 22:22:00,46.1,37.0,29.82,ESE,104,2.0,7.0,71,0.00,,,0.00,weatherlink.com 1.10,2013-03-05 04:22:00,
2013-03-04 22:37:00,45.7,37.0,29.80,ESE,104,2.0,5.0,73,0.00,,,0.00,weatherlink.com 1.10,2013-03-05 04:37:00,
2013-03-04 22:52:00,45.6,37.0,29.81,ESE,104,2.0,3.0,73,0.00,,,0.00,weatherlink.com 1.10,2013-03-05 04:52:00,
2013-03-04 23:07:00,45.3,38.0,29.80,ESE,104,1.0,3.0,75,0.00,,,0.00,weatherlink.com 1.10,2013-03-05 05:07:00,
2013-03-04 23:22:00,45.4,37.0,29.80,ESE,104,3.0,5.0,73,0.00,,,0.00,weatherlink.com 1.10,2013-03-05 05:22:00,
2013-03-04 23:37:00,45.4,37.0,29.79,ESE,104,3.0,5.0,73,0.00,,,0.00,weatherlink.com 1.10,2013-03-05 05:37:00,
2013-03-04 23:52:00,45.6,37.0,29.79,ESE,104,1.0,3.0,73,0.00,,,0.00,weatherlink.com 1.10,2013-03-05 05:52:00,